createdAt,value
2023-04-28T00:00:36.708Z,97046.88
2023-04-28T00:01:38.589Z,97052.69
2023-04-28T00:02:40.530Z,97057.06
2023-04-28T00:03:42.754Z,97054.47
2023-04-28T00:04:44.954Z,97052.78
2023-04-28T00:05:47.995Z,97051.78
2023-04-28T00:06:49.924Z,97047.06
2023-04-28T00:07:51.888Z,97050.44
2023-04-28T00:08:53.914Z,97051.25
2023-04-28T00:09:57.226Z,97046.06
2023-04-28T00:10:59.240Z,97041.56
2023-04-28T00:12:02.040Z,97042.13
2023-04-28T00:13:03.938Z,97048.63
2023-04-28T00:14:06.395Z,97043.63
2023-04-28T00:15:08.520Z,97047.38
2023-04-28T00:16:10.431Z,97041.97
2023-04-28T00:17:12.358Z,97044.88
2023-04-28T00:18:14.283Z,97041.09
2023-04-28T00:19:16.306Z,97042.56
2023-04-28T00:20:18.353Z,97044.97
2023-04-28T00:21:20.381Z,97045.78
2023-04-28T00:22:22.414Z,97041.94
2023-04-28T00:23:24.369Z,97043.06
2023-04-28T00:24:26.303Z,97037.09
2023-04-28T00:25:28.166Z,97039.34
2023-04-28T00:26:30.017Z,97040.66
2023-04-28T00:27:33.228Z,97042.06
2023-04-28T00:28:35.272Z,97039.63
2023-04-28T00:29:37.436Z,97028.03
2023-04-28T00:30:39.391Z,97034.09
2023-04-28T00:31:41.329Z,97032.97
2023-04-28T00:32:43.255Z,97031.00
2023-04-28T00:33:45.585Z,97041.31
2023-04-28T00:34:47.497Z,97033.00
2023-04-28T00:35:49.400Z,97030.69
2023-04-28T00:36:51.321Z,97031.75
2023-04-28T00:37:53.190Z,97038.41
2023-04-28T00:38:55.068Z,97030.44
2023-04-28T00:39:57.285Z,97030.88
2023-04-28T00:40:59.172Z,97033.16
2023-04-28T00:42:02.396Z,97030.34
2023-04-28T00:43:04.917Z,97029.22
2023-04-28T00:44:06.936Z,97028.84
2023-04-28T00:45:09.123Z,97025.78
2023-04-28T00:46:11.524Z,97031.59
2023-04-28T00:47:13.896Z,97028.38
2023-04-28T00:48:16.004Z,97023.72
2023-04-28T00:49:17.899Z,97029.53
2023-04-28T00:50:19.839Z,97026.56
2023-04-28T00:51:21.919Z,97027.19
2023-04-28T00:52:23.851Z,97020.69
2023-04-28T00:53:25.848Z,97020.34
2023-04-28T00:54:27.856Z,97025.34
2023-04-28T00:55:32.201Z,97018.19
2023-04-28T00:56:34.236Z,97017.84
2023-04-28T00:57:36.562Z,97027.03
2023-04-28T00:58:38.538Z,97020.88
2023-04-28T00:59:40.530Z,97021.50
2023-04-28T01:00:42.638Z,97028.66
2023-04-28T01:01:44.627Z,97025.78
2023-04-28T01:02:47.139Z,97026.97
2023-04-28T01:03:49.358Z,97021.31
2023-04-28T01:04:52.967Z,97026.13
2023-04-28T01:05:54.971Z,97025.31
2023-04-28T01:06:57.385Z,97026.13
2023-04-28T01:07:59.342Z,97030.56
2023-04-28T01:09:01.238Z,97020.56
2023-04-28T01:10:03.417Z,97019.41
2023-04-28T01:11:05.576Z,97013.03
2023-04-28T01:12:07.562Z,97016.28
2023-04-28T01:13:09.459Z,97011.09
2023-04-28T01:14:11.325Z,97013.03
2023-04-28T01:15:16.438Z,97009.19
2023-04-28T01:16:18.462Z,97012.94
2023-04-28T01:17:20.388Z,97015.88
2023-04-28T01:18:23.155Z,97007.13
2023-04-28T01:19:25.139Z,97006.59
2023-04-28T01:20:27.050Z,97008.22
2023-04-28T01:21:30.666Z,97007.84
2023-04-28T01:22:32.638Z,97013.75
2023-04-28T01:23:34.516Z,97010.53
2023-04-28T01:24:36.534Z,97009.72
2023-04-28T01:25:38.424Z,97010.69
2023-04-28T01:26:40.461Z,97017.34
2023-04-28T01:27:42.365Z,97015.38
2023-04-28T01:28:44.290Z,97016.00
2023-04-28T01:29:46.334Z,97019.56
2023-04-28T01:30:48.222Z,97012.59
2023-04-28T01:31:50.157Z,97010.81
2023-04-28T01:32:52.169Z,97011.63
2023-04-28T01:33:54.036Z,97015.72
2023-04-28T01:34:55.918Z,97014.13
2023-04-28T01:35:59.211Z,97015.88
2023-04-28T01:37:01.505Z,97020.91
2023-04-28T01:38:03.523Z,97017.34
2023-04-28T01:39:05.742Z,97017.50
2023-04-28T01:40:08.424Z,97025.13
2023-04-28T01:41:10.317Z,97022.16
2023-04-28T01:42:12.167Z,97020.19
2023-04-28T01:43:14.125Z,97019.06
2023-04-28T01:44:16.429Z,97022.63
2023-04-28T01:45:18.298Z,97019.06
2023-04-28T01:46:20.265Z,97017.28
2023-04-28T01:47:22.233Z,97020.66
2023-04-28T01:48:24.692Z,97019.50
2023-04-28T01:49:26.554Z,97020.50
2023-04-28T01:50:28.396Z,97017.91
2023-04-28T01:51:30.317Z,97021.13
2023-04-28T01:52:32.335Z,97016.56
2023-04-28T01:53:34.437Z,97021.59
2023-04-28T01:54:36.333Z,97021.13
2023-04-28T01:55:38.566Z,97020.31
2023-04-28T01:56:40.416Z,97025.13
2023-04-28T01:57:42.540Z,97024.69
2023-04-28T01:58:44.529Z,97038.66
2023-04-28T01:59:46.460Z,97026.84
2023-04-28T02:00:48.411Z,97015.00
2023-04-28T02:01:50.333Z,97014.75
2023-04-28T02:02:52.328Z,97020.44
2023-04-28T02:03:55.762Z,97022.69
2023-04-28T02:04:58.582Z,97021.53
2023-04-28T02:06:00.633Z,97019.56
2023-04-28T02:07:02.497Z,97019.31
2023-04-28T02:08:04.530Z,97010.25
2023-04-28T02:09:06.658Z,97008.00
2023-04-28T02:10:08.952Z,97009.25
2023-04-28T02:11:10.945Z,97001.31
2023-04-28T02:12:12.880Z,97004.53
2023-04-28T02:13:14.828Z,97007.75
2023-04-28T02:14:17.071Z,97002.19
2023-04-28T02:15:19.892Z,96997.53
2023-04-28T02:16:21.842Z,96999.59
2023-04-28T02:17:23.738Z,96999.44
2023-04-28T02:18:25.577Z,97001.03
2023-04-28T02:19:27.509Z,96999.75
2023-04-28T02:20:30.785Z,96998.69
2023-04-28T02:21:34.599Z,96996.44
2023-04-28T02:22:36.763Z,96985.91
2023-04-28T02:23:39.140Z,96989.91
2023-04-28T02:24:40.965Z,96992.81
2023-04-28T02:25:42.992Z,96992.44
2023-04-28T02:26:44.913Z,96998.09
2023-04-28T02:27:46.810Z,96989.16
2023-04-28T02:28:49.425Z,96989.78
2023-04-28T02:29:52.094Z,96990.56
2023-04-28T02:30:53.987Z,96993.69
2023-04-28T02:31:56.050Z,97003.81
2023-04-28T02:32:57.949Z,96993.84
2023-04-28T02:33:59.814Z,96994.25
2023-04-28T02:35:01.712Z,96993.28
2023-04-28T02:36:04.699Z,96995.34
2023-04-28T02:37:06.705Z,96998.41
2023-04-28T02:38:08.652Z,96996.91
2023-04-28T02:39:11.035Z,96994.78
2023-04-28T02:40:13.165Z,97003.81
2023-04-28T02:41:15.705Z,96999.09
2023-04-28T02:42:17.787Z,96996.88
2023-04-28T02:43:19.795Z,96997.41
2023-04-28T02:44:21.780Z,97002.50
2023-04-28T02:45:23.719Z,97003.75
2023-04-28T02:46:25.826Z,96996.88
2023-04-28T02:47:27.854Z,96998.69
2023-04-28T02:48:29.814Z,96995.94
2023-04-28T02:49:31.957Z,96987.78
2023-04-28T02:50:33.905Z,96989.88
2023-04-28T02:51:35.974Z,96988.72
2023-04-28T02:52:38.409Z,96984.97
2023-04-28T02:53:40.273Z,96993.84
2023-04-28T02:54:42.309Z,96982.66
2023-04-28T02:55:44.258Z,96989.03
2023-04-28T02:56:46.165Z,96984.97
2023-04-28T02:57:48.110Z,96996.16
2023-04-28T02:58:49.936Z,96984.97
2023-04-28T02:59:51.842Z,96988.38
2023-04-28T03:00:53.783Z,96988.03
2023-04-28T03:01:55.802Z,96986.53
2023-04-28T03:02:57.796Z,96994.47
2023-04-28T03:04:00.654Z,96993.50
2023-04-28T03:05:02.694Z,96988.94
2023-04-28T03:06:04.773Z,96988.66
2023-04-28T03:07:06.815Z,96987.06
2023-04-28T03:08:08.746Z,96986.69
2023-04-28T03:09:11.338Z,96987.84
2023-04-28T03:10:13.259Z,96984.63
2023-04-28T03:11:15.144Z,96982.84
2023-04-28T03:12:17.025Z,96977.50
2023-04-28T03:13:18.942Z,96979.72
2023-04-28T03:14:20.895Z,96980.34
2023-04-28T03:15:22.833Z,96981.81
2023-04-28T03:16:24.733Z,96982.44
2023-04-28T03:17:26.677Z,96979.84
2023-04-28T03:18:28.727Z,96974.03
2023-04-28T03:19:30.642Z,96979.38
2023-04-28T03:20:32.500Z,96979.63
2023-04-28T03:21:34.437Z,96978.97
2023-04-28T03:22:36.714Z,96978.66
2023-04-28T03:23:38.637Z,96971.50
2023-04-28T03:24:40.556Z,96973.72
2023-04-28T03:25:42.443Z,96983.13
2023-04-28T03:26:44.510Z,96978.75
2023-04-28T03:27:46.447Z,96985.19
2023-04-28T03:28:48.450Z,96978.84
2023-04-28T03:29:50.389Z,96984.19
2023-04-28T03:30:52.369Z,96973.72
2023-04-28T03:31:54.243Z,96972.47
2023-04-28T03:32:56.303Z,96970.88
2023-04-28T03:33:59.891Z,96966.66
2023-04-28T03:35:01.984Z,96974.75
2023-04-28T03:36:04.183Z,96967.34
2023-04-28T03:37:06.127Z,96967.34
2023-04-28T03:38:08.034Z,96975.44
2023-04-28T03:39:10.616Z,96968.28
2023-04-28T03:40:12.847Z,96968.72
2023-04-28T03:41:14.901Z,96960.50
2023-04-28T03:42:17.018Z,96965.69
2023-04-28T03:43:18.886Z,96961.94
2023-04-28T03:44:21.929Z,96962.19
2023-04-28T03:45:23.950Z,96965.25
2023-04-28T03:46:25.953Z,96964.28
2023-04-28T03:47:28.616Z,96964.91
2023-04-28T03:48:30.623Z,96962.94
2023-04-28T03:49:32.614Z,96964.09
2023-04-28T03:50:34.591Z,96959.44
2023-04-28T03:51:36.530Z,96966.59
2023-04-28T03:52:39.092Z,96962.63
2023-04-28T03:53:40.970Z,96959.22
2023-04-28T03:54:42.918Z,96963.72
2023-04-28T03:55:44.930Z,96961.41
2023-04-28T03:56:47.016Z,96961.69
2023-04-28T03:57:48.950Z,96965.72
2023-04-28T03:58:50.786Z,96962.31
2023-04-28T03:59:52.721Z,96961.50
2023-04-28T04:00:54.701Z,96961.31
2023-04-28T04:01:56.797Z,96964.00
2023-04-28T04:03:03.385Z,96958.47
2023-04-28T04:04:05.976Z,96954.53
2023-04-28T04:05:08.393Z,96959.38
2023-04-28T04:06:10.614Z,96954.97
2023-04-28T04:07:12.632Z,96955.34
2023-04-28T04:08:15.062Z,96953.91
2023-04-28T04:09:17.106Z,96954.88
2023-04-28T04:10:19.091Z,96951.03
2023-04-28T04:11:21.263Z,96950.22
2023-04-28T04:12:23.190Z,96944.25
2023-04-28T04:13:25.051Z,96952.81
2023-04-28T04:14:27.006Z,96948.91
2023-04-28T04:15:29.059Z,96949.34
2023-04-28T04:16:31.117Z,96948.19
2023-04-28T04:17:33.217Z,96944.25
2023-04-28T04:18:35.254Z,96941.31
2023-04-28T04:19:37.057Z,96940.25
2023-04-28T04:20:38.935Z,96942.84
2023-04-28T04:21:41.585Z,96943.81
2023-04-28T04:22:43.529Z,96938.44
2023-04-28T04:23:45.451Z,96947.81
2023-04-28T04:24:47.303Z,96938.59
2023-04-28T04:25:49.834Z,96945.28
2023-04-28T04:26:51.750Z,96947.19
2023-04-28T04:27:53.640Z,96948.91
2023-04-28T04:28:55.525Z,96951.75
2023-04-28T04:29:57.501Z,96941.22
2023-04-28T04:30:59.624Z,96946.56
2023-04-28T04:32:01.610Z,96947.34
2023-04-28T04:33:03.564Z,96943.94
2023-04-28T04:34:05.548Z,96950.41
2023-04-28T04:35:07.661Z,96956.56
2023-04-28T04:36:09.584Z,96952.66
2023-04-28T04:37:11.471Z,96955.50
2023-04-28T04:38:13.571Z,96950.00
2023-04-28T04:39:15.995Z,96946.41
2023-04-28T04:40:17.926Z,96946.56
2023-04-28T04:41:23.056Z,96950.00
2023-04-28T04:42:26.002Z,96946.94
2023-04-28T04:43:28.301Z,96946.47
2023-04-28T04:44:30.132Z,96938.97
2023-04-28T04:45:32.184Z,96943.81
2023-04-28T04:46:34.151Z,96943.81
2023-04-28T04:47:36.208Z,96937.28
2023-04-28T04:48:38.144Z,96937.56
2023-04-28T04:49:40.028Z,96936.06
2023-04-28T04:50:42.926Z,96935.22
2023-04-28T04:51:44.889Z,96930.69
2023-04-28T04:52:46.885Z,96931.69
2023-04-28T04:53:48.969Z,96932.63
2023-04-28T04:54:50.903Z,96930.69
2023-04-28T04:55:52.853Z,96933.56
2023-04-28T04:56:54.801Z,96928.19
2023-04-28T04:57:56.825Z,96931.59
2023-04-28T04:58:58.707Z,96935.78
2023-04-28T05:00:00.635Z,96927.03
2023-04-28T05:01:02.741Z,96928.28
2023-04-28T05:02:04.670Z,96925.13
2023-04-28T05:03:06.829Z,96927.38
2023-04-28T05:04:09.159Z,96928.19
2023-04-28T05:05:20.527Z,96937.22
2023-04-28T05:06:23.691Z,96922.09
2023-04-28T05:07:26.729Z,96932.75
2023-04-28T05:08:28.954Z,96932.22
2023-04-28T05:09:32.316Z,96927.66
2023-04-28T05:10:34.247Z,96923.09
2023-04-28T05:11:36.218Z,96918.13
2023-04-28T05:12:39.306Z,96923.16
2023-04-28T05:13:41.206Z,96919.16
2023-04-28T05:14:43.222Z,96919.03
2023-04-28T05:15:45.145Z,96921.63
2023-04-28T05:16:47.070Z,96922.25
2023-04-28T05:17:49.044Z,96917.91
2023-04-28T05:18:51.362Z,96918.31
2023-04-28T05:19:53.316Z,96915.81
2023-04-28T05:20:55.276Z,96921.00
2023-04-28T05:21:57.266Z,96911.25
2023-04-28T05:22:59.194Z,96918.66
2023-04-28T05:24:02.629Z,96923.69
2023-04-28T05:25:04.825Z,96919.28
2023-04-28T05:26:06.858Z,96908.56
2023-04-28T05:27:08.768Z,96919.91
2023-04-28T05:28:10.832Z,96914.53
2023-04-28T05:29:12.773Z,96920.00
2023-04-28T05:30:16.011Z,96920.19
2023-04-28T05:31:17.994Z,96920.19
2023-04-28T05:32:19.960Z,96922.59
2023-04-28T05:33:22.717Z,96915.06
2023-04-28T05:34:24.811Z,96922.91
2023-04-28T05:35:26.884Z,96916.56
2023-04-28T05:36:28.920Z,96919.56
2023-04-28T05:37:30.843Z,96917.59
2023-04-28T05:38:34.108Z,96917.81
2023-04-28T05:39:35.984Z,96924.41
2023-04-28T05:40:37.924Z,96923.69
2023-04-28T05:41:39.862Z,96915.53
2023-04-28T05:42:41.837Z,96918.13
2023-04-28T05:43:43.797Z,96917.94
2023-04-28T05:44:46.023Z,96920.16
2023-04-28T05:45:47.951Z,96924.56
2023-04-28T05:46:50.010Z,96924.75
2023-04-28T05:47:52.091Z,96925.81
2023-04-28T05:48:54.234Z,96920.22
2023-04-28T05:49:56.087Z,96924.06
2023-04-28T05:50:57.988Z,96925.47
2023-04-28T05:51:59.931Z,96916.72
2023-04-28T05:53:01.875Z,96916.16
2023-04-28T05:54:03.859Z,96908.00
2023-04-28T05:55:05.997Z,96914.78
2023-04-28T05:56:08.242Z,96908.03
2023-04-28T05:57:10.204Z,96907.28
2023-04-28T05:58:12.168Z,96905.50
2023-04-28T05:59:14.193Z,96899.75
2023-04-28T06:00:16.331Z,96905.34
2023-04-28T06:01:18.677Z,96905.19
2023-04-28T06:02:22.697Z,96909.03
2023-04-28T06:03:25.453Z,96907.84
2023-04-28T06:04:27.771Z,96907.50
2023-04-28T06:05:30.491Z,96901.94
2023-04-28T06:06:34.406Z,96903.94
2023-04-28T06:07:36.409Z,96895.22
2023-04-28T06:08:38.942Z,96899.84
2023-04-28T06:09:40.850Z,96894.84
2023-04-28T06:10:42.671Z,96903.69
2023-04-28T06:11:44.652Z,96886.72
2023-04-28T06:12:46.551Z,96889.56
2023-04-28T06:13:49.387Z,96891.97
2023-04-28T06:14:53.250Z,96891.75
2023-04-28T06:15:55.424Z,96893.81
2023-04-28T06:16:57.477Z,96890.63
2023-04-28T06:17:59.661Z,96885.03
2023-04-28T06:19:02.053Z,96886.81
2023-04-28T06:20:04.202Z,96895.84
2023-04-28T06:21:06.193Z,96893.50
2023-04-28T06:22:08.126Z,96897.13
2023-04-28T06:23:10.135Z,96897.16
2023-04-28T06:24:12.015Z,96889.56
2023-04-28T06:25:13.928Z,96894.38
2023-04-28T06:26:18.110Z,96895.19
2023-04-28T06:27:20.325Z,96895.78
2023-04-28T06:28:22.380Z,96894.81
2023-04-28T06:29:24.425Z,96885.38
2023-04-28T06:30:26.353Z,96893.00
2023-04-28T06:31:28.360Z,96883.38
2023-04-28T06:32:30.280Z,96880.78
2023-04-28T06:33:32.208Z,96880.41
2023-04-28T06:34:34.782Z,96881.63
2023-04-28T06:35:39.091Z,96884.81
2023-04-28T06:36:40.957Z,96884.81
2023-04-28T06:37:42.966Z,96894.47
2023-04-28T06:38:45.502Z,96890.06
2023-04-28T06:39:47.383Z,96890.09
2023-04-28T06:40:49.242Z,96890.91
2023-04-28T06:41:51.094Z,96883.31
2023-04-28T06:42:52.943Z,96876.53
2023-04-28T06:43:54.856Z,96878.34
2023-04-28T06:44:56.789Z,96872.50
2023-04-28T06:45:58.607Z,96867.72
2023-04-28T06:47:00.466Z,96862.09
2023-04-28T06:48:02.730Z,96858.28
2023-04-28T06:49:04.669Z,96866.50
2023-04-28T06:50:07.001Z,96861.69
2023-04-28T06:51:09.001Z,96859.69
2023-04-28T06:52:10.951Z,96865.31
2023-04-28T06:53:12.837Z,96863.31
2023-04-28T06:54:14.963Z,96861.31
2023-04-28T06:55:17.768Z,96861.72
2023-04-28T06:56:20.181Z,96858.91
2023-04-28T06:57:22.135Z,96848.09
2023-04-28T06:58:24.156Z,96852.53
2023-04-28T06:59:25.989Z,96853.31
2023-04-28T07:00:28.037Z,96848.09
2023-04-28T07:01:30.103Z,96855.91
2023-04-28T07:02:32.537Z,96854.31
2023-04-28T07:03:34.905Z,96845.69
2023-04-28T07:04:37.344Z,96846.47
2023-04-28T07:05:39.309Z,96842.28
2023-04-28T07:06:41.306Z,96841.25
2023-04-28T07:07:43.233Z,96837.66
2023-04-28T07:08:45.095Z,96843.66
2023-04-28T07:09:47.019Z,96847.69
2023-04-28T07:10:48.977Z,96833.44
2023-04-28T07:11:50.880Z,96836.66
2023-04-28T07:12:52.840Z,96838.06
2023-04-28T07:13:54.672Z,96842.84
2023-04-28T07:14:56.616Z,96836.25
2023-04-28T07:15:58.673Z,96843.66
2023-04-28T07:17:00.590Z,96842.44
2023-04-28T07:18:02.607Z,96838.06
2023-04-28T07:19:04.585Z,96838.66
2023-04-28T07:20:07.353Z,96840.03
2023-04-28T07:21:09.468Z,96829.41
2023-04-28T07:22:11.379Z,96841.44
2023-04-28T07:23:13.359Z,96839.44
2023-04-28T07:24:15.498Z,96840.44
2023-04-28T07:25:17.791Z,96835.22
2023-04-28T07:26:19.751Z,96834.41
2023-04-28T07:27:21.754Z,96834.41
2023-04-28T07:28:23.692Z,96830.00
2023-04-28T07:29:25.759Z,96834.22
2023-04-28T07:30:28.414Z,96829.59
2023-04-28T07:31:30.432Z,96825.78
2023-04-28T07:32:32.296Z,96832.63
2023-04-28T07:33:34.268Z,96833.22
2023-04-28T07:34:37.303Z,96835.59
2023-04-28T07:35:39.180Z,96829.38
2023-04-28T07:36:41.628Z,96834.59
2023-04-28T07:37:43.713Z,96830.19
2023-04-28T07:38:45.683Z,96830.38
2023-04-28T07:39:47.674Z,96828.38
2023-04-28T07:41:51.681Z,96824.78
2023-04-28T07:42:53.538Z,96828.78
2023-04-28T07:43:55.461Z,96827.78
2023-04-28T07:44:59.057Z,96827.78
2023-04-28T07:46:00.928Z,96830.97
2023-04-28T07:47:03.261Z,96837.59
2023-04-28T07:48:05.270Z,96829.56
2023-04-28T07:49:08.681Z,96829.56
2023-04-28T07:50:12.199Z,96829.16
2023-04-28T07:51:14.062Z,96826.53
2023-04-28T07:52:16.586Z,96829.16
2023-04-28T07:53:18.480Z,96823.91
2023-04-28T07:54:20.609Z,96828.16
2023-04-28T07:55:22.619Z,96831.75
2023-04-28T07:56:24.826Z,96832.56
2023-04-28T07:57:26.864Z,96829.97
2023-04-28T07:58:28.757Z,96836.78
2023-04-28T07:59:31.043Z,96828.56
2023-04-28T08:00:32.952Z,96828.56
2023-04-28T08:01:34.931Z,96826.72
2023-04-28T08:02:37.048Z,96829.94
2023-04-28T08:03:39.301Z,96831.13
2023-04-28T08:04:41.780Z,96829.31
2023-04-28T08:05:45.466Z,96830.94
2023-04-28T08:06:47.522Z,96824.69
2023-04-28T08:07:49.505Z,96825.47
2023-04-28T08:08:51.349Z,96826.50
2023-04-28T08:09:53.860Z,96825.72
2023-04-28T08:10:55.851Z,96826.31
2023-04-28T08:11:59.321Z,96823.47
2023-04-28T08:13:01.164Z,96821.44
2023-04-28T08:14:03.667Z,96820.25
2023-04-28T08:15:06.037Z,96814.00
2023-04-28T08:16:08.019Z,96813.03
2023-04-28T08:17:10.327Z,96815.41
2023-04-28T08:18:12.321Z,96817.03
2023-04-28T08:19:14.293Z,96816.00
2023-04-28T08:20:16.309Z,96814.22
2023-04-28T08:21:18.347Z,96815.00
2023-04-28T08:22:20.231Z,96817.63
2023-04-28T08:23:22.225Z,96817.63
2023-04-28T08:24:24.101Z,96819.78
2023-04-28T08:25:26.461Z,96822.00
2023-04-28T08:26:28.423Z,96827.81
2023-04-28T08:27:31.372Z,96819.34
2023-04-28T08:28:34.305Z,96824.19
2023-04-28T08:29:36.259Z,96826.59
2023-04-28T08:30:39.120Z,96822.94
2023-04-28T08:31:41.064Z,96828.56
2023-04-28T08:32:43.127Z,96818.91
2023-04-28T08:33:48.802Z,96824.13
2023-04-28T08:34:50.802Z,96826.75
2023-04-28T08:35:52.802Z,96822.13
2023-04-28T08:36:54.762Z,96824.72
2023-04-28T08:37:56.761Z,96825.31
2023-04-28T08:39:03.604Z,96829.56
2023-04-28T08:40:10.226Z,96828.53
2023-04-28T08:41:19.704Z,96819.69
2023-04-28T08:42:21.624Z,96817.69
2023-04-28T08:43:24.574Z,96821.88
2023-04-28T08:44:26.546Z,96823.50
2023-04-28T08:45:30.528Z,96813.84
2023-04-28T08:46:33.624Z,96818.03
2023-04-28T08:47:36.736Z,96813.03
2023-04-28T08:48:43.687Z,96816.25
2023-04-28T08:49:46.215Z,96816.25
2023-04-28T08:50:55.147Z,96817.03
2023-04-28T08:51:59.578Z,96804.78
2023-04-28T08:53:04.798Z,96814.81
2023-04-28T08:55:13.411Z,96813.59
2023-04-28T08:56:17.088Z,96809.75
2023-04-28T08:57:20.463Z,96801.91
2023-04-28T08:58:23.219Z,96805.94
2023-04-28T08:59:25.336Z,96796.28
2023-04-28T09:00:27.254Z,96800.84
2023-04-28T09:01:29.085Z,96807.47
2023-04-28T09:02:31.168Z,96799.22
2023-04-28T09:03:33.722Z,96799.81
2023-04-28T09:04:36.015Z,96788.91
2023-04-28T09:05:38.126Z,96793.75
2023-04-28T09:06:40.278Z,96796.16
2023-04-28T09:07:45.807Z,96785.25
2023-04-28T09:08:47.691Z,96783.03
2023-04-28T09:09:49.638Z,96788.88
2023-04-28T09:11:10.566Z,96787.63
2023-04-28T09:12:12.526Z,96785.19
2023-04-28T09:13:26.717Z,96780.75
2023-04-28T09:14:29.674Z,96788.41
2023-04-28T09:15:36.450Z,96783.16
2023-04-28T09:16:42.085Z,96788.97
2023-04-28T09:17:50.501Z,96781.13
2023-04-28T09:18:58.571Z,96779.09
2023-04-28T09:20:00.686Z,96779.91
2023-04-28T09:21:10.110Z,96784.53
2023-04-28T09:22:25.399Z,96778.31
2023-04-28T09:23:28.989Z,96775.06
2023-04-28T09:24:32.010Z,96782.25
2023-04-28T09:25:34.423Z,96782.63
2023-04-28T09:26:51.741Z,96773.53
2023-04-28T09:27:54.336Z,96771.09
2023-04-28T09:29:11.909Z,96774.88
2023-04-28T09:30:13.853Z,96771.81
2023-04-28T09:31:31.018Z,96767.16
2023-04-28T09:32:33.379Z,96765.50
2023-04-28T09:33:35.415Z,96756.41
2023-04-28T09:34:50.156Z,96757.81
2023-04-28T09:35:53.002Z,96758.16
2023-04-28T09:36:54.865Z,96761.41
2023-04-28T09:37:59.468Z,96755.72
2023-04-28T09:39:01.588Z,96759.72
2023-04-28T09:40:13.154Z,96769.97
2023-04-28T09:41:15.102Z,96763.72
2023-04-28T09:42:36.587Z,96758.50
2023-04-28T09:43:38.578Z,96765.31
2023-04-28T09:44:42.992Z,96755.44
2023-04-28T09:45:46.097Z,96761.81
2023-04-28T09:46:48.419Z,96756.97
2023-04-28T09:47:50.523Z,96758.34
2023-04-28T09:49:01.060Z,96760.28
2023-04-28T09:50:04.296Z,96759.66
2023-04-28T09:51:08.112Z,96762.63
2023-04-28T09:52:13.734Z,96747.25
2023-04-28T09:53:17.579Z,96744.44
2023-04-28T09:54:21.831Z,96732.72
2023-04-28T09:55:24.671Z,96735.91
2023-04-28T09:56:29.070Z,96737.94
2023-04-28T09:57:33.027Z,96740.72
2023-04-28T09:58:35.625Z,96735.03
2023-04-28T09:59:37.820Z,96737.22
2023-04-28T10:00:40.809Z,96730.50
2023-04-28T10:01:43.934Z,96729.63
2023-04-28T10:02:46.556Z,96728.16
2023-04-28T10:03:49.456Z,96723.06
2023-04-28T10:04:52.727Z,96719.78
2023-04-28T10:05:55.582Z,96724.34
2023-04-28T10:06:57.680Z,96720.47
2023-04-28T10:08:01.457Z,96720.06
2023-04-28T10:09:03.969Z,96719.59
2023-04-28T10:10:07.191Z,96722.78
2023-04-28T10:11:10.269Z,96719.50
2023-04-28T10:12:12.662Z,96714.38
2023-04-28T10:13:14.659Z,96719.75
2023-04-28T10:14:16.514Z,96714.06
2023-04-28T10:15:18.426Z,96715.66
2023-04-28T10:16:20.627Z,96710.78
2023-04-28T10:17:23.091Z,96708.47
2023-04-28T10:18:25.488Z,96704.38
2023-04-28T10:19:27.496Z,96707.13
2023-04-28T10:20:29.866Z,96705.31
2023-04-28T10:21:35.372Z,96703.47
2023-04-28T10:22:49.461Z,96696.22
2023-04-28T10:24:06.093Z,96697.56
2023-04-28T10:25:19.228Z,96684.22
2023-04-28T10:26:22.144Z,96686.59
2023-04-28T10:27:29.955Z,96692.41
2023-04-28T10:28:31.745Z,96690.38
2023-04-28T10:29:33.937Z,96685.94
2023-04-28T10:30:36.484Z,96688.31
2023-04-28T10:31:38.492Z,96682.06
2023-04-28T10:32:41.448Z,96679.22
2023-04-28T10:33:44.092Z,96676.59
2023-04-28T10:34:46.154Z,96681.59
2023-04-28T10:35:48.503Z,96681.38
2023-04-28T10:36:53.116Z,96679.31
2023-04-28T10:38:08.682Z,96688.78
2023-04-28T10:39:12.564Z,96678.31
2023-04-28T10:40:33.926Z,96675.09
2023-04-28T10:41:35.994Z,96675.78
2023-04-28T10:42:54.055Z,96674.75
2023-04-28T10:43:55.889Z,96671.34
2023-04-28T10:44:57.930Z,96666.31
2023-04-28T10:46:02.924Z,96671.56
2023-04-28T10:47:06.993Z,96676.59
2023-04-28T10:48:08.858Z,96674.53
2023-04-28T10:49:11.037Z,96666.41
2023-04-28T10:50:13.048Z,96664.38
2023-04-28T10:51:14.922Z,96664.94
2023-04-28T10:52:49.354Z,96676.00
2023-04-28T10:53:53.798Z,96666.06
2023-04-28T10:55:22.072Z,96669.81
2023-04-28T10:56:26.837Z,96666.75
2023-04-28T10:57:28.775Z,96660.25
2023-04-28T10:58:31.871Z,96659.22
2023-04-28T10:59:33.828Z,96658.19
2023-04-28T11:00:35.865Z,96664.00
2023-04-28T11:01:37.750Z,96663.78
2023-04-28T11:02:43.957Z,96663.56
2023-04-28T11:03:51.543Z,96657.25
2023-04-28T11:05:12.973Z,96663.34
2023-04-28T11:06:29.861Z,96659.44
2023-04-28T11:07:31.690Z,96657.94
2023-04-28T11:08:33.780Z,96655.09
2023-04-28T11:09:35.738Z,96652.22
2023-04-28T11:10:56.017Z,96655.41
2023-04-28T11:12:00.528Z,96645.72
2023-04-28T11:13:21.605Z,96650.50
2023-04-28T11:14:23.397Z,96654.47
2023-04-28T11:15:25.854Z,96650.84
2023-04-28T11:16:27.792Z,96648.00
2023-04-28T11:17:40.836Z,96646.16
2023-04-28T11:18:55.233Z,96648.78
2023-04-28T11:19:59.491Z,96645.16
2023-04-28T11:21:01.972Z,96638.63
2023-04-28T11:22:12.082Z,96638.63
2023-04-28T11:23:14.723Z,96641.81
2023-04-28T11:24:17.662Z,96641.34
2023-04-28T11:25:19.594Z,96639.31
2023-04-28T11:26:21.594Z,96636.66
2023-04-28T11:27:24.309Z,96642.75
2023-04-28T11:28:26.250Z,96644.09
2023-04-28T11:29:35.500Z,96639.41
2023-04-28T11:30:37.433Z,96643.38
2023-04-28T11:31:39.445Z,96649.69
2023-04-28T11:32:42.246Z,96646.81
2023-04-28T11:33:45.150Z,96651.84
2023-04-28T11:34:52.086Z,96653.44
2023-04-28T11:35:53.978Z,96658.69
2023-04-28T11:36:56.421Z,96658.22
2023-04-28T11:38:02.747Z,96655.03
2023-04-28T11:39:07.708Z,96661.88
2023-04-28T11:40:13.377Z,96659.47
2023-04-28T11:41:15.422Z,96661.31
2023-04-28T11:42:17.663Z,96661.06
2023-04-28T11:43:36.524Z,96660.84
2023-04-28T11:44:53.171Z,96655.03
2023-04-28T11:45:55.088Z,96661.88
2023-04-28T11:47:01.063Z,96667.69
2023-04-28T11:48:20.774Z,96662.44
2023-04-28T11:49:24.930Z,96664.03
2023-04-28T11:50:36.401Z,96669.06
2023-04-28T11:51:39.198Z,96670.88
2023-04-28T11:52:52.479Z,96670.06
2023-04-28T11:53:55.728Z,96671.34
2023-04-28T11:54:59.514Z,96672.38
2023-04-28T11:56:10.321Z,96677.88
2023-04-28T11:57:19.496Z,96672.94
2023-04-28T11:58:25.482Z,96668.16
2023-04-28T11:59:28.994Z,96672.13
2023-04-28T12:00:30.816Z,96670.56
2023-04-28T12:01:33.424Z,96668.72
2023-04-28T12:02:37.237Z,96666.56
2023-04-28T12:03:48.877Z,96668.38
2023-04-28T12:04:51.037Z,96671.81
2023-04-28T12:05:53.016Z,96670.78
2023-04-28T12:07:07.313Z,96676.03
2023-04-28T12:08:09.258Z,96679.22
2023-04-28T12:09:18.150Z,96674.19
2023-04-28T12:10:20.391Z,96683.91
2023-04-28T12:11:22.830Z,96676.03
2023-04-28T12:12:40.012Z,96678.44
2023-04-28T12:14:06.993Z,96679.78
2023-04-28T12:15:10.096Z,96680.56
2023-04-28T12:16:12.034Z,96677.94
2023-04-28T12:17:23.516Z,96680.56
2023-04-28T12:18:25.421Z,96682.97
2023-04-28T12:19:27.601Z,96688.22
2023-04-28T12:20:36.951Z,96688.22
2023-04-28T12:21:40.210Z,96682.97
2023-04-28T12:22:47.029Z,96683.75
2023-04-28T12:23:48.907Z,96680.34
2023-04-28T12:25:08.334Z,96685.81